Terminal Aerodrome Forecast
Issued by NWS

Home | Current Version | Previous Version | Text Only | Print | Product List | Glossary On
Versions: 1 2 3 4 5 6 7 8 9 10 11 12 13 14 15 16 17 18 19
000
FTUS43 KGRR 281100
TAFBTL
TAF
KBTL 281140Z 2812/2912 20004KT P6SM -SHSN OVC030
     FM281800 19008KT 2SM -SN OVC015
     FM282300 15010KT 5SM -SN OVC035=

USA.gov is the U.S. government's official web portal to all federal, state and local government web resources and services.